Time;durP1;ratioP1;P1;durP2;ratioP2;P2;SDS_P1;SDS_P2;PMS_P1;PMS_P2;Temp;Humidity;BMP_temperature;BMP_pressure;BME280_temperature;BME280_humidity;BME280_pressure;Samples;Min_cycle;Max_cycle;Signal;HPM_P1;HPM_P2
2022/01/19 00:01:06;;;;;;;7.27;4.70;;;;;;;-5.79;100.00;99020.98;1715788;84;21527;-69
2022/01/19 00:03:33;;;;;;;10.20;5.00;;;;;;;-5.76;100.00;99031.79;1730924;83;21038;-69
2022/01/19 00:06:00;;;;;;;6.50;4.60;;;;;;;-5.74;100.00;99035.17;1716296;83;21488;-69
2022/01/19 00:08:28;;;;;;;7.27;3.70;;;;;;;-5.74;100.00;99033.41;1673773;84;21510;-68
2022/01/19 00:10:56;;;;;;;9.33;5.30;;;;;;;-5.74;100.00;99037.81;1716633;83;21080;-69
2022/01/19 00:13:24;;;;;;;51.87;38.40;;;;;;;-5.73;100.00;99036.41;1735753;83;21053;-68
2022/01/19 00:15:54;;;;;;;13.10;6.57;;;;;;;-5.72;100.00;99046.01;1735127;82;21495;-68
2022/01/19 00:18:23;;;;;;;7.00;4.20;;;;;;;-5.70;100.00;99041.10;1741352;82;21542;-69
2022/01/19 00:20:53;;;;;;;13.37;8.10;;;;;;;-5.70;100.00;99053.83;1735440;82;20970;-69
2022/01/19 00:23:20;;;;;;;12.83;7.90;;;;;;;-5.69;100.00;99038.38;1736902;82;21026;-69
2022/01/19 00:25:48;;;;;;;6.10;4.23;;;;;;;-5.68;100.00;99041.41;1742579;82;21117;-70
2022/01/19 00:28:15;;;;;;;6.70;4.20;;;;;;;-5.67;100.00;99036.97;1704748;83;20973;-68
2022/01/19 00:30:43;;;;;;;7.23;4.00;;;;;;;-5.67;100.00;99035.66;1704581;83;21519;-69
2022/01/19 00:33:12;;;;;;;22.97;15.47;;;;;;;-5.66;100.00;99034.25;1704688;84;21014;-69
2022/01/19 00:35:40;;;;;;;21.00;13.10;;;;;;;-5.64;100.00;99031.05;1648105;85;21003;-70
2022/01/19 00:38:07;;;;;;;9.23;6.13;;;;;;;-5.64;100.00;99040.27;1667883;85;21019;-69
2022/01/19 00:40:36;;;;;;;12.97;6.90;;;;;;;-5.62;100.00;99047.60;1667579;86;21088;-69
2022/01/19 00:43:03;;;;;;;17.43;10.23;;;;;;;-5.62;100.00;99048.91;1671082;85;21017;-68
2022/01/19 00:45:30;;;;;;;10.13;5.03;;;;;;;-5.61;100.00;99051.94;1670961;85;21532;-68
2022/01/19 00:47:57;;;;;;;7.57;4.50;;;;;;;-5.61;100.00;99049.31;1667741;85;21039;-69
2022/01/19 00:50:27;;;;;;;11.00;5.07;;;;;;;-5.64;100.00;99050.80;1667513;85;20996;-69
2022/01/19 00:52:54;;;;;;;16.70;10.90;;;;;;;-5.66;100.00;99043.47;1671408;85;21063;-69
2022/01/19 00:55:24;;;;;;;10.10;5.70;;;;;;;-5.68;100.00;99050.63;1667744;86;21079;-70
2022/01/19 00:57:51;;;;;;;7.63;4.80;;;;;;;-5.69;100.00;99051.55;1648910;86;21059;-68
2022/01/19 01:00:21;;;;;;;8.83;4.40;;;;;;;-5.72;100.00;99053.91;1667598;86;21091;-69
2022/01/19 01:02:48;;;;;;;10.70;6.00;;;;;;;-5.73;100.00;99056.16;1667629;86;21016;-68
2022/01/19 01:05:15;;;;;;;7.10;4.20;;;;;;;-5.75;100.00;99058.52;1671109;85;21529;-69
2022/01/19 01:07:44;;;;;;;7.70;4.20;;;;;;;-5.74;100.00;99062.38;1672977;85;21496;-70
2022/01/19 01:10:14;;;;;;;7.40;3.90;;;;;;;-5.73;100.00;99073.27;1684725;85;21098;-69
2022/01/19 01:12:52;;;;;;;8.13;4.37;;;;;;;-5.73;100.00;99069.80;1619080;89;21066;-69
2022/01/19 01:20:36;;;;;;;13.83;7.53;;;;;;;-5.71;100.00;99073.19;1604742;89;21050;-69
2022/01/19 01:23:06;;;;;;;30.92;22.93;;;;;;;-5.69;100.00;99075.25;1605297;89;21133;-68
2022/01/19 01:25:34;;;;;;;14.57;7.67;;;;;;;-5.68;100.00;99078.27;1604855;89;21584;-69
2022/01/19 01:28:01;;;;;;;25.33;15.57;;;;;;;-5.67;100.00;99090.48;1604656;89;21158;-69
2022/01/19 01:30:28;;;;;;;20.47;13.27;;;;;;;-5.65;100.00;99090.40;1626769;88;21067;-69
2022/01/19 01:32:55;;;;;;;13.53;7.83;;;;;;;-5.64;100.00;99088.99;1605159;88;21101;-70
2022/01/19 01:35:22;;;;;;;16.37;10.47;;;;;;;-5.64;100.00;99100.84;1605061;89;21547;-69
2022/01/19 01:37:49;;;;;;;11.33;7.73;;;;;;;-5.63;100.00;99108.27;1605096;88;21156;-68
2022/01/19 01:40:17;;;;;;;12.90;5.53;;;;;;;-5.62;100.00;99112.13;1604940;89;21273;-69
2022/01/19 01:42:45;;;;;;;8.43;5.20;;;;;;;-5.62;100.00;99112.13;1605219;89;21062;-68
2022/01/19 01:45:16;;;;;;;5.63;4.10;;;;;;;-5.60;100.00;99118.15;1605064;89;21665;-69
2022/01/19 01:47:51;;;;;;;5.90;3.67;;;;;;;-5.60;100.00;99119.95;1604816;89;21149;-68
2022/01/19 01:55:30;;;;;;;7.53;3.80;;;;;;;-5.59;100.00;99122.49;1604900;89;21054;-69
2022/01/19 01:57:57;;;;;;;6.27;3.60;;;;;;;-5.58;100.00;99122.88;1605146;89;21122;-67
2022/01/19 02:00:26;;;;;;;5.97;3.90;;;;;;;-5.57;100.00;99115.34;1605145;88;21105;-68
2022/01/19 02:02:55;;;;;;;5.63;3.93;;;;;;;-5.57;100.00;99111.39;1604889;89;21074;-69
2022/01/19 02:05:23;;;;;;;8.77;4.50;;;;;;;-5.55;100.00;99112.14;1605166;89;21093;-68
2022/01/19 02:24:16;;;;;;;6.27;3.80;;;;;;;-5.59;100.00;99115.07;1586502;90;21799;-69
2022/01/19 02:27:04;;;;;;;24.97;12.57;;;;;;;-5.58;100.00;99122.02;1570825;90;21137;-68
2022/01/19 02:40:25;;;;;;;6.77;3.37;;;;;;;-5.54;100.00;99124.39;1540493;93;21133;-68
2022/01/19 02:50:32;;;;;;;8.37;3.93;;;;;;;-5.55;100.00;99130.58;1544590;92;21641;-69
2022/01/19 02:53:01;;;;;;;6.60;3.50;;;;;;;-5.55;100.00;99130.58;1544449;91;21040;-70
2022/01/19 02:55:30;;;;;;;9.37;4.20;;;;;;;-5.55;100.00;99122.67;1544746;92;21052;-69
2022/01/19 02:57:57;;;;;;;5.67;3.43;;;;;;;-5.54;100.00;99126.18;1564616;92;20997;-68
2022/01/19 03:08:46;;;;;;;6.63;3.63;;;;;;;-5.52;100.00;99129.56;1635979;88;21086;-68
2022/01/19 03:11:19;;;;;;;9.30;4.55;;;;;;;-5.50;100.00;99130.80;1636300;88;21094;-68
2022/01/19 03:13:49;;;;;;;15.00;8.27;;;;;;;-5.50;100.00;99137.38;1636265;88;21042;-70
2022/01/19 03:16:21;;;;;;;6.53;3.90;;;;;;;-5.50;100.00;99141.34;1636325;88;21105;-68
2022/01/19 03:18:48;;;;;;;7.03;3.43;;;;;;;-5.51;100.00;99140.94;1636664;88;21090;-68
2022/01/19 03:21:17;;;;;;;5.80;3.50;;;;;;;-5.50;100.00;99147.44;1647438;85;21084;-68
2022/01/19 03:23:45;;;;;;;6.20;3.50;;;;;;;-5.50;100.00;99147.44;1687001;84;21057;-69
2022/01/19 03:26:13;;;;;;;8.13;3.73;;;;;;;-5.50;100.00;99154.51;1658064;86;21108;-69
2022/01/19 03:28:48;;;;;;;4.80;3.70;;;;;;;-5.50;100.00;99163.25;1674387;85;21621;-69
2022/01/19 03:31:17;;;;;;;5.07;4.03;;;;;;;-5.49;100.00;99166.72;1677624;84;21006;-69
2022/01/19 03:33:45;;;;;;;4.57;3.27;;;;;;;-5.48;100.00;99169.27;1681252;85;21037;-68
2022/01/19 03:36:12;;;;;;;5.00;3.40;;;;;;;-5.46;100.00;99168.70;1704256;84;21531;-68
2022/01/19 03:38:41;;;;;;;7.83;3.40;;;;;;;-5.47;100.00;99173.61;1658699;86;21488;-69
2022/01/19 03:41:08;;;;;;;4.97;3.47;;;;;;;-5.44;100.00;99177.84;1658280;85;21058;-69
2022/01/19 03:43:36;;;;;;;11.70;7.57;;;;;;;-5.46;100.00;99172.66;1675448;84;21027;-69
2022/01/19 03:46:12;;;;;;;20.27;11.33;;;;;;;-5.44;100.00;99179.16;1643271;86;21023;-68
2022/01/19 03:48:38;;;;;;;12.47;7.07;;;;;;;-5.45;100.00;99180.95;1678496;85;21083;-68
2022/01/19 03:51:03;;;;;;;21.50;11.37;;;;;;;-5.45;100.00;99182.27;1674729;86;21078;-69
2022/01/19 03:53:30;;;;;;;16.73;10.23;;;;;;;-5.46;100.00;99183.20;1677535;85;21039;-69
2022/01/19 03:55:59;;;;;;;6.83;3.57;;;;;;;-5.45;100.00;99190.17;1677542;86;21043;-70
2022/01/19 03:58:26;;;;;;;7.77;3.90;;;;;;;-5.45;100.00;99203.80;1658330;85;21067;-69
2022/01/19 04:00:57;;;;;;;5.67;3.63;;;;;;;-5.46;100.00;99203.44;1704248;84;21027;-69
2022/01/19 04:03:39;;;;;;;7.83;3.80;;;;;;;-5.44;100.00;99208.14;1677801;85;21008;-69
2022/01/19 04:06:15;;;;;;;8.53;5.93;;;;;;;-5.45;100.00;99199.39;1700583;83;21087;-68
2022/01/19 04:08:32;;;;;;;7.93;5.00;;;;;;;-5.44;100.00;99210.77;1699885;84;21054;-69
2022/01/19 04:11:00;;;;;;;7.37;4.63;;;;;;;-5.45;100.00;99217.84;1700767;84;21010;-69
2022/01/19 04:15:57;;;;;;;15.33;8.30;;;;;;;-5.46;100.00;99234.57;1700704;84;21129;-68
2022/01/19 04:18:24;;;;;;;26.43;18.73;;;;;;;-5.48;100.00;99230.34;1700945;84;21035;-68
2022/01/19 04:20:52;;;;;;;35.47;26.03;;;;;;;-5.50;100.00;99231.74;1700971;84;21603;-68
2022/01/19 04:23:21;;;;;;;30.17;20.07;;;;;;;-5.49;100.00;99243.12;1700716;84;21004;-68
2022/01/19 04:25:49;;;;;;;13.87;7.80;;;;;;;-5.49;100.00;99247.08;1707519;83;21043;-70
2022/01/19 04:28:16;;;;;;;24.13;14.20;;;;;;;-5.50;100.00;99254.62;1708813;84;21579;-71
2022/01/19 04:30:47;;;;;;;14.20;7.80;;;;;;;-5.51;100.00;99252.43;1680610;84;21043;-70
2022/01/19 04:33:18;;;;;;;8.53;3.87;;;;;;;-5.52;100.00;99253.39;1677769;85;20991;-69
2022/01/19 04:35:46;;;;;;;9.07;4.40;;;;;;;-5.53;100.00;99260.89;1670335;84;21044;-69
2022/01/19 04:39:07;;;;;;;8.57;4.17;;;;;;;-5.57;100.00;99258.91;1666401;86;21039;-68
2022/01/19 04:47:06;;;;;;;18.73;11.67;;;;;;;-5.54;100.00;99270.59;1667340;86;21052;-70
2022/01/19 05:05:34;;;;;;;6.43;3.90;;;;;;;-5.59;100.00;99290.23;1667648;86;21031;-70
2022/01/19 05:08:13;;;;;;;14.93;10.13;;;;;;;-5.59;100.00;99298.14;1667468;86;21019;-71
2022/01/19 05:15:55;;;;;;;44.10;28.93;;;;;;;-5.58;100.00;99305.96;1666356;86;21027;-72
2022/01/19 05:18:25;;;;;;;79.73;52.67;;;;;;;-5.59;100.00;99308.68;1666531;85;21031;-73
2022/01/19 05:20:52;;;;;;;28.63;15.60;;;;;;;-5.58;100.00;99310.36;1666902;86;21011;-72
2022/01/19 05:23:32;;;;;;;10.87;5.60;;;;;;;-5.59;100.00;99305.56;1619675;89;21096;-73
2022/01/19 05:26:01;;;;;;;9.17;5.17;;;;;;;-5.58;100.00;99302.45;1624515;87;21061;-71
2022/01/19 05:28:31;;;;;;;9.57;4.47;;;;;;;-5.58;100.00;99318.26;1630286;87;21084;-73
2022/01/19 05:30:58;;;;;;;12.73;5.47;;;;;;;-5.60;100.00;99311.75;1632616;87;21048;-72
2022/01/19 05:33:26;;;;;;;46.53;21.37;;;;;;;-5.58;100.00;99318.26;1656173;85;21020;-73
2022/01/19 05:35:53;;;;;;;43.30;23.20;;;;;;;-5.57;100.00;99318.66;1628667;87;21040;-73
2022/01/19 05:38:31;;;;;;;41.53;26.83;;;;;;;-5.55;100.00;99325.52;1622648;88;21098;-73
2022/01/19 05:41:05;;;;;;;33.90;22.50;;;;;;;-5.53;100.00;99333.34;1581879;91;21142;-74
2022/01/19 05:43:34;;;;;;;12.40;5.23;;;;;;;-5.53;100.00;99336.81;1582001;91;21527;-73
2022/01/19 05:46:01;;;;;;;9.00;4.70;;;;;;;-5.54;100.00;99338.25;1582191;89;21067;-72
2022/01/19 05:48:28;;;;;;;13.83;6.40;;;;;;;-5.54;100.00;99346.16;1582133;91;21535;-72
2022/01/19 05:50:56;;;;;;;10.87;5.10;;;;;;;-5.54;100.00;99348.31;1567517;91;21085;-74
2022/01/19 05:53:25;;;;;;;14.67;6.97;;;;;;;-5.53;100.00;99352.63;1580306;91;21074;-74
2022/01/19 05:55:52;;;;;;;19.83;10.43;;;;;;;-5.51;100.00;99353.02;1567545;91;21081;-72
2022/01/19 05:58:20;;;;;;;26.00;17.13;;;;;;;-5.50;100.00;99355.57;1582207;90;21058;-74
2022/01/19 06:00:50;;;;;;;37.33;25.10;;;;;;;-5.49;100.00;99356.41;1566252;90;21144;-73
2022/01/19 06:03:18;;;;;;;28.33;21.57;;;;;;;-5.49;100.00;99357.25;1607780;89;21051;-73
2022/01/19 06:06:05;;;;;;;31.50;23.67;;;;;;;-5.48;100.00;99353.70;1606788;89;21544;-72
2022/01/19 06:08:43;;;;;;;28.47;19.53;;;;;;;-5.48;100.00;99355.48;1608415;87;21015;-72
2022/01/19 06:11:09;;;;;;;18.30;10.60;;;;;;;-5.48;100.00;99350.22;1605078;89;21063;-73
2022/01/19 06:13:37;;;;;;;12.07;5.73;;;;;;;-5.46;100.00;99352.30;1608603;89;21054;-74
2022/01/19 06:16:04;;;;;;;10.47;6.30;;;;;;;-5.44;100.00;99349.09;1612623;89;21133;-72
2022/01/19 06:18:32;;;;;;;12.90;8.30;;;;;;;-5.44;100.00;99357.84;1643808;86;21009;-72
2022/01/19 06:21:03;;;;;;;12.03;6.80;;;;;;;-5.45;100.00;99354.84;1707460;83;21034;-74
2022/01/19 06:23:34;;;;;;;16.50;7.53;;;;;;;-5.48;100.00;99358.97;1711782;82;21003;-75
2022/01/19 06:26:04;;;;;;;8.47;4.27;;;;;;;-5.48;100.00;99360.76;1725727;81;21117;-73
2022/01/19 06:28:33;;;;;;;15.07;6.90;;;;;;;-5.51;100.00;99370.14;1689479;84;21098;-72
2022/01/19 06:31:00;;;;;;;10.03;4.83;;;;;;;-5.52;100.00;99364.03;1726689;83;21058;-72
2022/01/19 06:33:27;;;;;;;21.77;9.40;;;;;;;-5.51;100.00;99373.62;1713049;83;21064;-75
2022/01/19 06:35:56;;;;;;;42.23;19.67;;;;;;;-5.51;100.00;99380.20;1684565;84;21044;-73
2022/01/19 06:38:28;;;;;;;110.03;42.60;;;;;;;-5.49;100.00;99383.59;1738861;81;21478;-75
2022/01/19 06:40:57;;;;;;;14.30;7.23;;;;;;;-5.46;100.00;99389.18;1672614;86;21932;-75
2022/01/19 06:43:24;;;;;;;27.23;12.23;;;;;;;-5.45;100.00;99398.77;1672082;86;21070;-73
2022/01/19 06:45:54;;;;;;;63.07;30.57;;;;;;;-5.46;100.00;99391.81;1679707;85;21088;-73
2022/01/19 06:48:21;;;;;;;53.90;35.30;;;;;;;-5.45;100.00;99398.77;1679694;85;20975;-73
2022/01/19 06:50:48;;;;;;;34.63;19.77;;;;;;;-5.45;100.00;99402.27;1674210;84;21073;-73
2022/01/19 06:53:17;;;;;;;45.10;27.67;;;;;;;-5.43;100.00;99404.35;1672514;85;21026;-75
2022/01/19 06:55:46;;;;;;;99.10;55.20;;;;;;;-5.42;100.00;99399.48;1674728;85;21016;-73
2022/01/19 06:58:13;;;;;;;72.33;41.63;;;;;;;-5.44;100.00;99407.91;1674371;86;21527;-72
2022/01/19 07:00:42;;;;;;;62.50;24.80;;;;;;;-5.44;100.00;99413.17;1687657;85;21058;-74
2022/01/19 07:03:12;;;;;;;82.17;32.80;;;;;;;-5.41;100.00;99414.81;1684699;84;21010;-73
2022/01/19 07:05:47;;;;;;;107.67;44.23;;;;;;;-5.42;100.00;99421.87;1649041;86;21082;-72
2022/01/19 07:08:29;;;;;;;136.50;46.83;;;;;;;-5.41;100.00;99419.60;1616281;88;21117;-72
2022/01/19 07:10:56;;;;;;;147.40;47.37;;;;;;;-5.40;100.00;99421.31;1614676;89;21661;-70
2022/01/19 07:13:23;;;;;;;79.23;27.00;;;;;;;-5.40;100.00;99425.27;1615271;89;21053;-73
2022/01/19 07:15:50;;;;;;;98.63;32.97;;;;;;;-5.39;100.00;99428.27;1614752;89;21033;-73
2022/01/19 07:18:18;;;;;;;48.70;18.07;;;;;;;-5.38;100.00;99431.30;1637583;86;21473;-71
2022/01/19 07:20:46;;;;;;;125.47;46.80;;;;;;;-5.35;100.00;99428.50;1631123;88;21064;-73
2022/01/19 07:23:13;;;;;;;53.57;26.53;;;;;;;-5.34;100.00;99428.86;1612797;88;21081;-72
2022/01/19 07:25:42;;;;;;;44.17;21.67;;;;;;;-5.32;100.00;99435.85;1586514;89;21057;-72
2022/01/19 07:28:11;;;;;;;93.33;47.30;;;;;;;-5.31;100.00;99425.23;1576851;91;22233;-71
2022/01/19 07:30:41;;;;;;;157.10;84.60;;;;;;;-5.27;100.00;99430.70;1573185;91;21605;-74
2022/01/19 07:33:11;;;;;;;53.33;30.80;;;;;;;-5.24;100.00;99431.85;1579901;91;21090;-72
2022/01/19 07:35:39;;;;;;;198.83;84.83;;;;;;;-5.23;100.00;99427.42;1581241;91;21113;-72
2022/01/19 07:38:06;;;;;;;67.60;34.70;;;;;;;-5.24;100.00;99426.58;1601076;90;21658;-72
2022/01/19 07:40:33;;;;;;;59.60;31.00;;;;;;;-5.21;100.00;99430.34;1600869;90;21072;-70
2022/01/19 07:43:01;;;;;;;42.40;23.53;;;;;;;-5.19;100.00;99417.08;1600275;89;21206;-73
2022/01/19 07:45:42;;;;;;;25.07;12.83;;;;;;;-5.18;100.00;99413.52;1576465;90;21589;-73
2022/01/19 07:48:14;;;;;;;18.57;10.25;;;;;;;-5.14;100.00;99417.67;1577761;89;21041;-75
2022/01/19 07:50:46;;;;;;;20.70;9.50;;;;;;;-5.14;100.00;99415.03;1548926;91;21091;-73
2022/01/19 07:53:17;;;;;;;57.03;32.53;;;;;;;-5.16;100.00;99409.84;1490998;96;21200;-73
2022/01/19 07:55:49;;;;;;;39.70;26.17;;;;;;;-5.12;100.00;99416.27;1472552;96;21178;-73
2022/01/19 07:58:17;;;;;;;26.57;13.97;;;;;;;-5.12;100.00;99409.20;1466536;98;21169;-73
2022/01/19 08:00:48;;;;;;;25.43;12.27;;;;;;;-5.09;100.00;99413.47;1440216;99;21064;-73
2022/01/19 08:03:33;;;;;;;17.23;8.83;;;;;;;-5.12;100.00;99406.56;1466064;97;21157;-74
2022/01/19 08:06:05;;;;;;;25.73;11.93;;;;;;;-5.13;100.00;99401.38;1463599;98;21101;-73
2022/01/19 08:08:35;;;;;;;23.93;11.03;;;;;;;-5.11;100.00;99396.41;1449440;98;21219;-74
2022/01/19 08:11:08;;;;;;;25.10;9.67;;;;;;;-5.07;100.00;99386.54;1466437;98;21594;-74
2022/01/19 08:13:38;;;;;;;17.67;6.50;;;;;;;-5.04;100.00;99389.02;1464847;98;21653;-73
2022/01/19 08:16:06;;;;;;;24.23;10.03;;;;;;;-5.09;100.00;99376.08;1446889;98;21046;-75
2022/01/19 08:18:36;;;;;;;18.47;8.43;;;;;;;-5.10;100.00;99377.48;1466617;98;21158;-75
2022/01/19 08:21:04;;;;;;;26.10;13.97;;;;;;;-5.09;100.00;99376.56;1470198;96;21521;-74
2022/01/19 08:23:34;;;;;;;22.53;11.53;;;;;;;-5.11;100.00;99372.69;1484770;96;21106;-73
2022/01/19 08:26:07;;;;;;;31.57;18.53;;;;;;;-5.13;100.00;99387.75;1485959;95;21214;-72
2022/01/19 08:28:35;;;;;;;14.57;6.63;;;;;;;-5.13;100.00;99390.38;1532201;92;21287;-72
2022/01/19 08:31:02;;;;;;;13.63;5.63;;;;;;;-5.11;100.00;99389.82;1583700;87;21089;-75
2022/01/19 08:33:49;;;;;;;12.80;5.63;;;;;;;-5.09;100.00;99383.15;1666216;86;21744;-72
2022/01/19 08:36:18;;;;;;;15.60;6.47;;;;;;;-5.10;100.00;99379.64;1701409;84;21049;-75
2022/01/19 08:38:47;;;;;;;19.73;8.97;;;;;;;-5.07;100.00;99377.31;1694301;84;21074;-73
2022/01/19 08:41:16;;;;;;;15.20;8.63;;;;;;;-5.05;100.00;99368.36;1715303;84;21065;-72
2022/01/19 08:43:44;;;;;;;14.37;7.37;;;;;;;-5.02;100.00;99368.19;1714290;83;21097;-73
2022/01/19 08:46:11;;;;;;;27.13;13.00;;;;;;;-4.96;100.00;99361.27;1695954;84;21053;-73
2022/01/19 08:48:49;;;;;;;44.40;27.83;;;;;;;-4.87;100.00;99364.28;1717076;83;21023;-74
2022/01/19 08:51:18;;;;;;;21.27;11.43;;;;;;;-4.78;100.00;99362.41;1738471;82;21066;-72
2022/01/19 08:53:49;;;;;;;21.90;10.47;;;;;;;-4.71;100.00;99363.78;1676743;84;21024;-73
2022/01/19 08:56:21;;;;;;;22.27;12.73;;;;;;;-4.64;100.00;99355.88;1654319;84;21020;-73
2022/01/19 08:58:48;;;;;;;33.00;17.20;;;;;;;-4.64;100.00;99353.23;1681124;84;21181;-74
2022/01/19 09:01:15;;;;;;;67.43;35.73;;;;;;;-4.65;100.00;99355.97;1684622;84;21048;-72
2022/01/19 09:03:45;;;;;;;29.57;16.93;;;;;;;-4.61;100.00;99373.30;1685738;84;21111;-74
2022/01/19 09:06:13;;;;;;;34.20;17.47;;;;;;;-4.58;100.00;99377.08;1686267;85;21374;-74
2022/01/19 09:08:40;;;;;;;36.10;16.03;;;;;;;-4.52;100.00;99391.22;1683157;84;21024;-74
2022/01/19 09:11:07;;;;;;;27.43;12.67;;;;;;;-4.48;100.00;99399.34;1680685;84;21115;-76
2022/01/19 09:13:35;;;;;;;71.00;40.30;;;;;;;-4.45;100.00;99418.94;1678118;84;21619;-76
2022/01/19 09:16:02;;;;;;;31.70;15.60;;;;;;;-4.43;100.00;99445.23;1687499;84;21031;-76
2022/01/19 09:18:30;;;;;;;30.30;16.07;;;;;;;-4.44;100.00;99486.62;1683274;84;21553;-76
2022/01/19 09:20:59;;;;;;;35.93;21.17;;;;;;;-4.40;100.00;99513.21;1691556;84;21024;-78
2022/01/19 09:23:26;;;;;;;17.47;7.30;;;;;;;-4.32;100.00;99540.51;1691601;84;21658;-75
2022/01/19 09:25:53;;;;;;;22.73;12.80;;;;;;;-4.28;100.00;99572.38;1694384;84;21042;-76
2022/01/19 09:28:21;;;;;;;19.80;10.30;;;;;;;-4.25;100.00;99609.61;1665018;84;21050;-77
2022/01/19 09:30:50;;;;;;;13.90;6.50;;;;;;;-4.20;100.00;99641.89;1632987;86;21077;-76
2022/01/19 09:33:23;;;;;;;17.03;8.63;;;;;;;-4.21;100.00;99664.81;1633377;88;21121;-76
2022/01/19 09:36:06;;;;;;;18.10;9.30;;;;;;;-4.30;100.00;99690.41;1626831;87;21108;-75
2022/01/19 09:38:31;;;;;;;18.62;10.65;;;;;;;-4.36;100.00;99709.22;1634522;86;21070;-72
2022/01/19 09:40:58;;;;;;;22.77;13.57;;;;;;;-4.36;100.00;99707.90;1648630;87;21081;-72
2022/01/19 09:43:25;;;;;;;12.63;6.80;;;;;;;-4.39;100.00;99729.20;1630329;87;21002;-70
2022/01/19 09:45:57;;;;;;;11.07;5.90;;;;;;;-4.39;100.00;99748.53;1588891;89;21089;-72
2022/01/19 09:48:25;;;;;;;14.60;7.03;;;;;;;-4.37;100.00;99756.36;1592530;90;21048;-72
2022/01/19 09:50:54;;;;;;;11.23;6.27;;;;;;;-4.37;100.00;99780.13;1599928;89;21070;-73
2022/01/19 09:53:23;;;;;;;12.70;7.80;;;;;;;-4.35;100.00;99785.33;1585014;87;21055;-71
2022/01/19 09:55:50;;;;;;;23.83;13.60;;;;;;;-4.37;100.00;99798.59;1675226;84;20994;-72
2022/01/19 09:58:18;;;;;;;23.97;9.83;;;;;;;-4.36;100.00;99800.77;1633128;87;21040;-74
2022/01/19 10:00:46;;;;;;;32.37;16.77;;;;;;;-4.34;100.00;99811.61;1631699;87;21788;-73
2022/01/19 10:03:23;;;;;;;30.90;13.87;;;;;;;-4.33;100.00;99822.57;1607779;88;21016;-75
2022/01/19 10:06:07;;;;;;;44.67;20.33;;;;;;;-4.33;100.00;99836.25;1664662;85;20994;-74
2022/01/19 10:08:53;;;;;;;116.23;42.43;;;;;;;-4.35;100.00;99863.20;1662508;84;21094;-73
2022/01/19 10:16:58;;;;;;;102.63;38.83;;;;;;;-4.36;100.00;99878.64;1636554;87;21559;-71
2022/01/19 10:17:06;;;;;;;37.13;17.27;;;;;;;-4.38;100.00;99922.27;1633828;86;20982;-73
2022/01/19 10:19:41;;;;;;;56.07;26.13;;;;;;;-4.47;100.00;99928.02;1628775;87;21084;-70
2022/01/19 10:22:19;;;;;;;158.60;68.47;;;;;;;-4.50;100.00;99940.89;1629678;88;21008;-72
2022/01/19 10:24:56;;;;;;;68.73;29.67;;;;;;;-4.49;100.00;99949.22;1633614;87;21103;-70
2022/01/19 10:27:35;;;;;;;96.63;42.07;;;;;;;-4.45;100.00;99950.75;1659041;85;21072;-74
2022/01/19 10:30:11;;;;;;;83.53;40.03;;;;;;;-4.39;100.00;99961.49;1661403;85;21145;-75
2022/01/19 10:32:50;;;;;;;58.83;27.77;;;;;;;-4.36;100.00;99971.88;1662184;85;21468;-72
2022/01/19 10:35:31;;;;;;;61.20;33.70;;;;;;;-4.42;100.00;99972.20;1642157;86;21109;-72
2022/01/19 10:38:25;;;;;;;56.37;30.10;;;;;;;-4.45;100.00;99988.19;1658858;86;21131;-71
2022/01/19 10:41:08;;;;;;;38.60;20.50;;;;;;;-4.54;100.00;100002.69;1663173;85;21061;-75
2022/01/19 10:43:48;;;;;;;31.73;18.30;;;;;;;-4.64;100.00;100006.27;1637740;86;21335;-74
2022/01/19 10:46:27;;;;;;;67.17;32.23;;;;;;;-4.67;100.00;100015.64;1630912;86;21003;-74
2022/01/19 10:49:03;;;;;;;61.40;27.17;;;;;;;-4.70;100.00;100021.06;1678491;84;21026;-75
2022/01/19 10:51:37;;;;;;;65.67;29.30;;;;;;;-4.73;100.00;100013.28;1693978;84;20979;-76
2022/01/19 10:54:20;;;;;;;117.63;54.57;;;;;;;-4.75;100.00;100029.66;1684649;84;21435;-74
2022/01/19 10:56:57;;;;;;;70.03;34.63;;;;;;;-4.81;100.00;100028.18;1679485;85;21163;-74
2022/01/19 10:59:29;;;;;;;76.40;27.17;;;;;;;-4.88;100.00;100043.06;1686759;83;21018;-74
2022/01/19 11:02:00;;;;;;;43.40;18.90;;;;;;;-4.98;100.00;100047.91;1682685;83;21052;-75
2022/01/19 11:07:11;;;;;;;79.83;34.97;;;;;;;-5.05;100.00;100047.33;1602934;88;21914;-75
2022/01/19 11:09:46;;;;;;;47.93;23.87;;;;;;;-4.97;100.00;100045.67;1592315;90;21043;-75
2022/01/19 11:12:19;;;;;;;52.80;26.50;;;;;;;-4.90;100.00;100047.56;1595732;90;21079;-75
2022/01/19 11:14:46;;;;;;;;;;;;;;;-4.95;100.00;100047.77;1597035;90;21085;-74
2022/01/19 11:17:13;;;;;;;51.47;22.10;;;;;;;-4.96;100.00;100039.01;1593233;90;20119;-76
2022/01/19 11:19:43;;;;;;;35.00;15.43;;;;;;;-4.97;100.00;100043.87;1570639;90;21052;-74
2022/01/19 11:22:31;;;;;;;98.97;47.13;;;;;;;-5.02;100.00;100036.64;1586567;90;21103;-75
2022/01/19 11:25:15;;;;;;;80.60;35.83;;;;;;;-5.10;100.00;100037.45;1596084;88;21035;-73
2022/01/19 11:27:51;;;;;;;52.67;23.73;;;;;;;-5.13;100.00;100048.17;1560584;91;21144;-73
2022/01/19 11:30:27;;;;;;;71.77;40.17;;;;;;;-5.10;100.00;100044.05;1561724;92;21179;-71
2022/01/19 11:33:25;;;;;;;54.33;32.47;;;;;;;-5.06;100.00;100044.31;1561387;92;21089;-73
2022/01/19 11:36:04;;;;;;;144.00;55.57;;;;;;;-5.04;100.00;100053.01;1571909;91;21094;-74
2022/01/19 11:38:35;;;;;;;31.50;13.93;;;;;;;-5.02;100.00;100052.47;1571596;91;21094;-72
2022/01/19 11:41:12;;;;;;;63.80;29.93;;;;;;;-5.06;100.00;100073.33;1571721;91;21080;-74
2022/01/19 11:43:56;;;;;;;48.80;25.60;;;;;;;-5.12;100.00;100069.64;1558951;92;21056;-72
2022/01/19 11:46:36;;;;;;;124.23;56.93;;;;;;;-5.21;100.00;100081.45;1558727;91;21096;-74
2022/01/19 11:49:04;;;;;;;108.73;46.10;;;;;;;-5.26;100.00;100080.84;1491411;96;21699;-72
2022/01/19 11:51:38;;;;;;;25.00;10.70;;;;;;;-5.28;100.00;100087.09;1492154;95;21143;-74
2022/01/19 11:54:33;;;;;;;43.57;21.63;;;;;;;-5.25;100.00;100089.59;1523096;93;21103;-74
2022/01/19 11:57:05;;;;;;;13.63;6.67;;;;;;;-5.22;100.00;100090.78;1540014;91;21114;-73
2022/01/19 11:59:51;;;;;;;37.33;13.60;;;;;;;-5.21;100.00;100099.91;1550190;93;21631;-74
2022/01/19 12:02:36;;;;;;;37.63;19.50;;;;;;;-5.21;100.00;100105.66;1550437;93;21065;-74
2022/01/19 12:05:17;;;;;;;32.97;16.53;;;;;;;-5.20;100.00;100107.38;1549126;91;21141;-75
2022/01/19 12:07:55;;;;;;;11.17;5.37;;;;;;;-5.20;100.00;100104.75;1525666;93;21140;-75
2022/01/19 12:10:44;;;;;;;49.00;19.73;;;;;;;-5.28;100.00;100088.41;1555780;91;21097;-73
2022/01/19 12:19:02;;;;;;;18.23;8.60;;;;;;;-5.44;100.00;100093.04;1496934;96;21112;-72
2022/01/19 12:21:40;;;;;;;20.33;9.47;;;;;;;-5.46;100.00;100087.46;1450686;97;21057;-74
2022/01/19 12:24:21;;;;;;;23.27;10.20;;;;;;;-5.47;100.00;100081.34;1413141;101;21195;-75
2022/01/19 12:26:55;;;;;;;15.80;6.80;;;;;;;-5.50;100.00;100080.16;1399708;102;21621;-73
2022/01/19 12:29:37;;;;;;;27.90;11.97;;;;;;;-5.51;100.00;100079.74;1403473;102;21204;-75
2022/01/19 12:32:24;;;;;;;30.93;14.17;;;;;;;-5.51;100.00;100081.53;1414451;99;21124;-73
2022/01/19 12:35:14;;;;;;;22.53;9.90;;;;;;;-5.46;100.00;100079.55;1409670;101;21365;-72
2022/01/19 12:37:52;;;;;;;13.90;6.23;;;;;;;-5.44;100.00;100074.59;1404425;102;21199;-72
2022/01/19 12:40:25;;;;;;;43.03;23.37;;;;;;;-5.42;100.00;100077.16;1404616;101;21168;-72
2022/01/19 12:42:57;;;;;;;53.17;27.17;;;;;;;-5.45;100.00;100085.20;1404657;102;21200;-72
2022/01/19 12:45:30;;;;;;;33.10;13.23;;;;;;;-5.47;100.00;100076.52;1361682;105;21208;-73
2022/01/19 12:48:05;;;;;;;49.27;19.77;;;;;;;-5.50;100.00;100087.21;1364695;105;21190;-73
2022/01/19 12:50:46;;;;;;;54.80;23.87;;;;;;;-5.56;100.00;100079.09;1363809;105;21269;-72
2022/01/19 12:53:20;;;;;;;54.93;25.73;;;;;;;-5.55;100.00;100090.03;1351750;104;21192;-71
2022/01/19 12:56:01;;;;;;;49.20;22.47;;;;;;;-5.55;100.00;100090.03;1421457;100;21607;-74
2022/01/19 12:58:32;;;;;;;42.93;17.07;;;;;;;-5.61;100.00;100090.29;1417561;101;21132;-71
2022/01/19 13:01:01;;;;;;;22.37;8.80;;;;;;;-5.64;100.00;100089.13;1411742;100;21176;-73
2022/01/19 13:03:35;;;;;;;14.73;6.30;;;;;;;-5.66;100.00;100090.98;1431721;100;21128;-73
2022/01/19 13:06:09;;;;;;;19.47;8.17;;;;;;;-5.67;100.00;100083.98;1473728;96;21126;-73